Time;durP1;ratioP1;P1;durP2;ratioP2;P2;SDS_P1;SDS_P2;PMS_P1;PMS_P2;Temp;Humidity;BMP_temperature;BMP_pressure;BME280_temperature;BME280_humidity;BME280_pressure;Samples;Min_cycle;Max_cycle;Signal;HPM_P1;HPM_P2
2021/03/01 00:01:51;;;;;;;11.60;2.55;;;;;;;19.20;49.63;102335.28;5031658;28;20033;-59
2021/03/01 00:04:17;;;;;;;7.68;2.28;;;;;;;19.20;49.35;102332.56;5032992;28;20411;-59
2021/03/01 00:06:42;;;;;;;6.13;1.92;;;;;;;19.21;49.62;102344.28;5033110;28;20487;-59
2021/03/01 00:09:08;;;;;;;6.60;1.90;;;;;;;19.26;49.80;102342.63;5033145;28;20045;-58
2021/03/01 00:11:34;;;;;;;8.10;2.05;;;;;;;19.26;50.44;102339.06;5032582;28;20106;-60
2021/03/01 00:14:00;;;;;;;7.38;2.92;;;;;;;19.26;51.43;102333.63;5032749;28;20053;-59
2021/03/01 00:16:25;;;;;;;9.07;2.30;;;;;;;19.28;51.72;102347.88;5031667;28;20036;-60
2021/03/01 00:18:51;;;;;;;7.90;2.80;;;;;;;19.24;52.33;102341.97;5029655;28;20025;-58
2021/03/01 00:21:17;;;;;;;9.38;2.10;;;;;;;19.23;51.81;102345.75;5023327;28;20030;-59
2021/03/01 00:23:42;;;;;;;7.13;2.33;;;;;;;19.21;52.08;102336.09;5013017;28;20040;-59
2021/03/01 00:26:08;;;;;;;7.05;2.10;;;;;;;19.18;51.77;102341.94;5013109;28;20054;-59
2021/03/01 00:28:33;;;;;;;9.85;1.95;;;;;;;19.16;52.02;102350.31;5013026;28;20419;-60
2021/03/01 00:30:59;;;;;;;9.48;2.63;;;;;;;19.15;51.63;102348.63;5012929;28;20551;-59
2021/03/01 00:33:25;;;;;;;8.55;2.15;;;;;;;19.13;51.97;102344.41;5025974;28;20044;-60
2021/03/01 00:35:50;;;;;;;9.77;2.22;;;;;;;19.11;51.91;102341.06;5032809;28;20076;-60
2021/03/01 00:38:16;;;;;;;7.32;2.15;;;;;;;19.10;51.50;102356.56;5030441;28;20068;-60
2021/03/01 00:40:41;;;;;;;8.95;2.00;;;;;;;19.09;51.61;102344.00;5032383;28;20473;-59
2021/03/01 00:43:07;;;;;;;8.75;2.15;;;;;;;19.08;51.39;102346.88;5032389;28;20029;-60
2021/03/01 00:45:33;;;;;;;6.63;2.42;;;;;;;19.05;51.45;102342.69;5032185;28;20435;-59
2021/03/01 00:47:58;;;;;;;9.27;2.83;;;;;;;19.04;51.58;102343.75;5029125;28;20025;-60
2021/03/01 00:50:24;;;;;;;5.68;1.90;;;;;;;19.00;51.77;102348.72;5026303;28;20089;-59
2021/03/01 00:52:50;;;;;;;8.85;2.08;;;;;;;18.99;51.85;102354.38;5024810;28;20495;-60
2021/03/01 00:55:16;;;;;;;6.00;2.03;;;;;;;18.96;52.08;102354.75;5027717;28;20057;-59
2021/03/01 00:57:42;;;;;;;6.68;2.25;;;;;;;18.94;52.21;102351.41;5011991;28;20041;-60
2021/03/01 01:00:10;;;;;;;9.35;2.28;;;;;;;18.92;52.47;102356.22;5008662;28;20053;-58
2021/03/01 01:02:35;;;;;;;9.18;2.33;;;;;;;18.91;52.16;102351.78;5031641;28;20035;-60
2021/03/01 01:05:01;;;;;;;6.80;2.15;;;;;;;18.87;52.47;102351.34;5029620;28;20104;-60
2021/03/01 01:07:27;;;;;;;7.05;2.20;;;;;;;18.87;51.96;102350.53;5025351;28;20368;-60
2021/03/01 01:09:52;;;;;;;8.13;2.30;;;;;;;18.84;51.75;102342.72;5031895;28;20022;-59
2021/03/01 01:12:18;;;;;;;6.15;1.95;;;;;;;18.82;51.77;102356.53;5031565;28;20029;-58
2021/03/01 01:14:44;;;;;;;7.65;2.00;;;;;;;18.80;51.85;102355.03;5031780;28;20102;-60
2021/03/01 01:17:09;;;;;;;7.07;1.80;;;;;;;18.77;52.11;102350.84;5030313;28;20026;-61
2021/03/01 01:19:35;;;;;;;4.97;1.88;;;;;;;18.77;52.16;102351.69;5031355;28;20057;-60
2021/03/01 01:22:00;;;;;;;7.75;2.25;;;;;;;18.75;52.10;102350.22;5029383;28;20664;-59
2021/03/01 01:24:26;;;;;;;3.83;1.83;;;;;;;18.70;52.27;102350.78;5031724;28;20029;-59
2021/03/01 01:26:52;;;;;;;6.05;2.13;;;;;;;18.69;52.08;102345.56;5017460;28;20034;-60
2021/03/01 01:29:17;;;;;;;7.80;2.60;;;;;;;18.66;52.08;102345.91;5011609;28;20436;-60
2021/03/01 01:31:43;;;;;;;8.27;2.10;;;;;;;18.62;51.97;102337.28;5008394;28;20042;-58
2021/03/01 01:34:08;;;;;;;3.80;1.73;;;;;;;18.61;52.05;102329.31;5012018;28;20165;-60
2021/03/01 01:36:34;;;;;;;9.25;2.25;;;;;;;18.58;52.09;102332.44;5008185;28;20094;-59
2021/03/01 01:39:00;;;;;;;6.95;1.80;;;;;;;18.53;52.26;102333.03;5011993;28;20497;-60
2021/03/01 01:41:25;;;;;;;10.48;2.65;;;;;;;18.53;51.97;102330.31;5031130;28;20029;-59
2021/03/01 01:43:51;;;;;;;5.40;2.13;;;;;;;18.50;52.02;102333.41;5030071;28;20214;-60
2021/03/01 01:46:17;;;;;;;4.13;1.85;;;;;;;18.49;52.10;102331.72;5029549;28;20018;-60
2021/03/01 01:48:42;;;;;;;6.95;2.17;;;;;;;18.47;52.25;102328.38;5028851;28;20091;-57
2021/03/01 01:51:08;;;;;;;4.78;1.92;;;;;;;18.43;51.92;102327.91;5026176;28;20045;-60
2021/03/01 01:53:33;;;;;;;4.18;1.80;;;;;;;18.43;52.27;102329.78;5025341;28;20044;-60
2021/03/01 01:55:59;;;;;;;8.23;2.38;;;;;;;18.36;52.40;102331.59;5028471;28;20036;-60
2021/03/01 01:58:25;;;;;;;5.47;2.05;;;;;;;18.31;52.46;102328.63;5026798;28;20116;-60
2021/03/01 02:00:51;;;;;;;6.78;1.88;;;;;;;18.27;52.48;102327.31;5029722;28;20029;-59
2021/03/01 02:03:36;;;;;;;7.88;2.00;;;;;;;18.26;52.47;102325.66;5029400;28;20042;-60
2021/03/01 02:06:04;;;;;;;3.45;1.70;;;;;;;18.21;52.56;102335.22;5029291;28;20041;-60
2021/03/01 02:08:32;;;;;;;4.80;1.67;;;;;;;18.18;52.58;102332.03;5030973;28;20037;-60
2021/03/01 02:11:08;;;;;;;3.83;1.70;;;;;;;18.14;52.60;102323.44;5028244;28;20029;-58
2021/03/01 02:13:37;;;;;;;7.63;1.80;;;;;;;18.10;52.67;102316.69;5032178;28;20021;-60
2021/03/01 02:16:15;;;;;;;7.65;2.15;;;;;;;18.10;52.70;102319.41;5033502;28;20021;-59
2021/03/01 02:18:41;;;;;;;7.60;2.17;;;;;;;18.06;52.74;102315.38;5034958;28;20477;-59
2021/03/01 02:21:07;;;;;;;6.15;1.52;;;;;;;18.06;52.70;102319.97;5035025;28;20296;-60
2021/03/01 02:23:33;;;;;;;7.90;1.92;;;;;;;18.04;52.63;102320.19;5032285;28;20112;-59
2021/03/01 02:26:01;;;;;;;4.97;1.83;;;;;;;18.02;52.48;102319.53;5035246;28;20104;-58
2021/03/01 02:28:29;;;;;;;5.10;2.00;;;;;;;17.99;52.57;102319.91;5035001;28;20084;-59
2021/03/01 02:30:56;;;;;;;4.03;1.58;;;;;;;17.96;52.69;102315.72;5034424;28;20083;-59
2021/03/01 02:33:23;;;;;;;9.27;1.80;;;;;;;17.95;52.28;102318.59;5033485;28;20021;-59
2021/03/01 02:35:52;;;;;;;3.17;1.55;;;;;;;17.92;52.14;102321.72;5034526;28;20226;-59
2021/03/01 02:38:19;;;;;;;4.05;1.75;;;;;;;17.91;52.19;102320.03;5034932;28;20394;-59
2021/03/01 02:40:45;;;;;;;3.25;1.50;;;;;;;17.89;52.18;102319.38;5034127;28;20495;-59
2021/03/01 02:43:11;;;;;;;8.65;1.88;;;;;;;17.87;52.11;102313.28;5024417;28;20084;-59
2021/03/01 02:45:37;;;;;;;5.40;2.28;;;;;;;17.84;52.05;102309.06;5014705;28;20084;-58
2021/03/01 02:48:03;;;;;;;6.22;2.03;;;;;;;17.83;52.07;102309.25;5014107;28;20549;-58
2021/03/01 02:50:29;;;;;;;5.30;1.75;;;;;;;17.81;52.02;102301.31;5014462;28;20455;-58
2021/03/01 02:52:54;;;;;;;3.63;1.60;;;;;;;17.79;52.04;102299.81;5014720;28;20030;-59
2021/03/01 02:55:20;;;;;;;4.45;1.48;;;;;;;17.77;51.88;102299.16;5014695;28;20029;-59
2021/03/01 02:57:46;;;;;;;2.95;1.65;;;;;;;17.74;52.05;102291.41;5014267;28;20053;-60
2021/03/01 03:00:12;;;;;;;3.53;1.80;;;;;;;17.71;52.00;102295.31;5014634;28;20447;-58
2021/03/01 03:02:38;;;;;;;4.10;1.58;;;;;;;17.67;51.96;102300.25;5011568;28;20026;-59
2021/03/01 03:05:05;;;;;;;4.15;1.42;;;;;;;17.67;52.10;102289.41;5014490;28;20030;-59
2021/03/01 03:07:30;;;;;;;3.03;1.45;;;;;;;17.61;51.83;102295.59;5014459;28;20092;-59
2021/03/01 03:09:56;;;;;;;4.00;1.55;;;;;;;17.61;52.05;102287.44;5014213;28;20076;-59
2021/03/01 03:12:22;;;;;;;4.90;1.60;;;;;;;17.58;52.09;102289.72;5014068;28;20026;-59
2021/03/01 03:14:48;;;;;;;3.53;1.52;;;;;;;17.56;52.18;102291.75;5014123;28;20034;-60
2021/03/01 03:17:13;;;;;;;4.72;1.30;;;;;;;17.55;52.02;102285.50;5012874;28;20038;-59
2021/03/01 03:19:41;;;;;;;5.53;1.63;;;;;;;17.51;52.28;102284.22;5014478;28;20069;-60
2021/03/01 03:22:07;;;;;;;2.95;1.65;;;;;;;17.49;52.02;102286.25;5014455;28;20026;-58
2021/03/01 03:24:32;;;;;;;2.05;1.40;;;;;;;17.47;51.96;102277.47;5013616;28;20033;-59
2021/03/01 03:26:58;;;;;;;6.22;1.55;;;;;;;17.45;52.04;102274.06;5013690;28;20034;-58
2021/03/01 03:29:24;;;;;;;3.88;1.42;;;;;;;17.43;51.93;102274.28;5013941;28;20030;-58
2021/03/01 03:31:49;;;;;;;6.13;1.70;;;;;;;17.40;51.96;102276.53;5013568;28;20034;-59
2021/03/01 03:34:15;;;;;;;4.05;1.33;;;;;;;17.37;51.93;102282.34;5014267;28;20029;-60
2021/03/01 03:36:43;;;;;;;4.15;1.40;;;;;;;17.37;51.85;102282.34;5016400;28;20164;-58
2021/03/01 03:39:10;;;;;;;6.90;1.60;;;;;;;17.36;51.76;102272.50;5013798;28;20109;-59
2021/03/01 03:41:37;;;;;;;2.35;1.08;;;;;;;17.32;51.98;102271.19;5014130;28;20073;-60
2021/03/01 03:44:03;;;;;;;2.92;1.33;;;;;;;17.28;52.00;102269.88;5030943;28;20018;-59
2021/03/01 03:46:28;;;;;;;2.60;1.40;;;;;;;17.26;52.00;102270.06;5033289;28;20579;-60
2021/03/01 03:48:54;;;;;;;3.83;1.67;;;;;;;17.24;52.05;102274.03;5033248;28;20030;-60
2021/03/01 03:51:20;;;;;;;2.00;1.20;;;;;;;17.20;51.86;102281.69;5033255;28;20049;-60
2021/03/01 03:53:50;;;;;;;2.00;1.10;;;;;;;17.19;51.94;102270.00;5033555;28;20049;-60
2021/03/01 03:56:16;;;;;;;;;;;;;;;17.28;51.82;102269.88;5033965;28;20026;-59
2021/03/01 03:58:46;;;;;;;2.70;1.25;;;;;;;17.20;51.84;102262.69;5031827;28;19916;-59
2021/03/01 04:01:13;;;;;;;1.85;1.00;;;;;;;17.16;51.89;102278.50;5029270;28;20025;-58
2021/03/01 04:03:40;;;;;;;3.72;1.50;;;;;;;17.14;51.90;102277.00;5028780;28;20056;-60
2021/03/01 04:06:06;;;;;;;3.92;1.58;;;;;;;17.12;51.94;102277.22;5031682;28;20036;-58
2021/03/01 04:08:31;;;;;;;2.55;1.30;;;;;;;17.06;51.90;102272.53;5031503;28;20021;-60
2021/03/01 04:10:57;;;;;;;3.72;1.20;;;;;;;17.08;51.87;102277.75;5027410;28;20025;-59
2021/03/01 04:13:24;;;;;;;2.50;0.90;;;;;;;17.06;51.92;102271.66;5033274;28;20119;-59
2021/03/01 04:15:49;;;;;;;2.83;1.30;;;;;;;17.03;51.89;102262.03;5049127;28;20028;-58
2021/03/01 04:18:20;;;;;;;3.03;1.40;;;;;;;17.02;51.72;102271.22;5033320;28;20133;-60
2021/03/01 04:20:46;;;;;;;3.63;1.10;;;;;;;17.02;51.75;102267.66;5016724;28;20029;-60
2021/03/01 04:23:11;;;;;;;2.50;1.20;;;;;;;16.97;51.79;102267.38;5043230;28;20028;-60
2021/03/01 04:25:37;;;;;;;1.63;1.10;;;;;;;16.97;51.78;102265.50;5052207;28;20036;-60
2021/03/01 04:28:03;;;;;;;3.67;1.33;;;;;;;16.93;51.62;102264.16;5052388;28;20245;-59
2021/03/01 04:30:28;;;;;;;1.60;1.23;;;;;;;16.93;51.74;102261.47;5052817;28;20029;-59
2021/03/01 04:32:54;;;;;;;1.63;1.25;;;;;;;16.90;51.60;102264.56;5039783;28;20108;-59
2021/03/01 04:35:20;;;;;;;3.33;1.30;;;;;;;16.87;51.61;102267.63;5032066;28;20040;-58
2021/03/01 04:37:46;;;;;;;1.75;1.02;;;;;;;16.89;51.77;102268.28;5032605;28;20027;-58
2021/03/01 04:40:13;;;;;;;3.63;1.33;;;;;;;16.86;51.66;102258.66;5032590;28;20485;-60
2021/03/01 04:42:39;;;;;;;1.55;1.13;;;;;;;16.82;51.57;102261.91;5026479;28;20037;-60
2021/03/01 04:45:06;;;;;;;2.45;1.08;;;;;;;16.81;51.83;102269.22;5012997;28;20021;-58
2021/03/01 04:47:32;;;;;;;1.40;1.10;;;;;;;16.76;51.73;102260.78;5012222;28;20022;-58
2021/03/01 04:49:58;;;;;;;4.30;1.38;;;;;;;16.75;51.76;102266.41;5012478;28;20056;-60
2021/03/01 04:52:24;;;;;;;2.03;1.20;;;;;;;16.72;51.75;102266.75;5012554;28;20040;-59
2021/03/01 04:54:49;;;;;;;1.60;1.02;;;;;;;16.74;51.67;102256.59;5012786;28;20042;-58
2021/03/01 04:57:15;;;;;;;3.28;1.20;;;;;;;16.74;51.58;102264.72;5012544;28;20141;-60
2021/03/01 04:59:41;;;;;;;3.03;1.17;;;;;;;16.70;51.74;102260.66;5010810;28;20022;-59
2021/03/01 05:02:06;;;;;;;2.35;1.42;;;;;;;16.69;51.58;102251.69;5012428;28;20033;-59
2021/03/01 05:04:32;;;;;;;1.45;1.00;;;;;;;16.66;51.62;102252.88;5012559;28;20025;-60
2021/03/01 05:06:58;;;;;;;2.95;1.00;;;;;;;16.65;51.61;102259.31;5012528;28;20389;-60
2021/03/01 05:09:23;;;;;;;1.58;1.10;;;;;;;16.65;51.48;102262.03;5012083;28;20033;-60
2021/03/01 05:11:49;;;;;;;2.97;1.13;;;;;;;16.63;51.52;102257.84;5012124;28;20057;-58
2021/03/01 05:14:15;;;;;;;2.30;0.98;;;;;;;16.57;51.53;102264.84;5012682;28;20123;-60
2021/03/01 05:16:40;;;;;;;2.40;1.13;;;;;;;16.55;51.34;102264.16;5010755;28;20564;-60
2021/03/01 05:19:06;;;;;;;3.47;1.60;;;;;;;16.55;51.41;102253.31;5011987;28;20543;-59
2021/03/01 05:21:31;;;;;;;2.03;1.15;;;;;;;16.54;51.39;102248.94;5012275;28;20033;-58
2021/03/01 05:23:57;;;;;;;2.33;1.20;;;;;;;16.53;51.54;102252.66;5012318;28;20026;-60
2021/03/01 05:26:23;;;;;;;1.48;1.00;;;;;;;16.49;51.59;102245.06;5012087;28;20501;-60
2021/03/01 05:28:48;;;;;;;2.78;1.05;;;;;;;16.48;51.50;102244.25;5011871;28;20474;-60
2021/03/01 05:31:14;;;;;;;1.08;0.98;;;;;;;16.46;51.54;102245.47;5011896;28;20026;-60
2021/03/01 05:33:40;;;;;;;0.75;0.60;;;;;;;16.48;51.37;102243.41;5011750;28;20060;-60
2021/03/01 05:36:06;;;;;;;1.55;0.95;;;;;;;16.43;51.42;102248.53;5011833;28;20026;-58
2021/03/01 05:38:31;;;;;;;2.60;0.90;;;;;;;16.42;51.42;102244.97;5011790;28;20030;-59
2021/03/01 05:40:57;;;;;;;3.58;1.10;;;;;;;16.40;51.43;102247.03;5011779;28;20201;-60
2021/03/01 05:43:26;;;;;;;2.00;0.93;;;;;;;16.37;51.58;102244.69;5025338;28;20047;-60
2021/03/01 05:45:51;;;;;;;1.92;1.00;;;;;;;16.34;51.64;102245.06;5031407;28;20396;-58
2021/03/01 05:48:18;;;;;;;2.15;1.17;;;;;;;16.32;51.56;102258.78;5028644;28;20056;-59
2021/03/01 05:50:43;;;;;;;1.00;0.90;;;;;;;16.31;51.64;102256.25;5031140;28;20159;-59
2021/03/01 05:53:09;;;;;;;0.73;0.70;;;;;;;16.30;51.37;102251.88;5031366;28;20588;-58
2021/03/01 05:55:35;;;;;;;1.85;0.85;;;;;;;16.29;51.34;102261.88;5031873;28;20021;-59
2021/03/01 05:58:01;;;;;;;2.10;1.02;;;;;;;16.26;51.47;102250.53;5031284;28;20047;-59
2021/03/01 06:00:28;;;;;;;2.60;0.98;;;;;;;16.24;51.50;102258.00;5031679;28;20480;-60
2021/03/01 06:02:53;;;;;;;1.92;1.02;;;;;;;16.21;51.50;102256.50;5030970;28;20029;-58
2021/03/01 06:05:19;;;;;;;3.22;0.80;;;;;;;16.19;51.31;102257.72;5031323;28;20041;-60
2021/03/01 06:07:45;;;;;;;2.38;1.02;;;;;;;16.18;51.39;102258.75;5031337;28;20034;-59
2021/03/01 06:10:11;;;;;;;2.15;1.20;;;;;;;16.14;51.41;102250.13;5031358;28;20029;-58
2021/03/01 06:12:36;;;;;;;1.60;0.80;;;;;;;16.12;51.55;102254.88;5030640;28;20034;-60
2021/03/01 06:15:02;;;;;;;3.67;1.48;;;;;;;16.13;51.76;102260.13;5031159;28;20029;-58
2021/03/01 06:17:28;;;;;;;2.25;1.00;;;;;;;16.11;51.48;102262.19;5029610;28;20053;-58
2021/03/01 06:19:55;;;;;;;1.25;0.93;;;;;;;16.09;51.40;102256.06;5031045;28;20056;-58
2021/03/01 06:22:23;;;;;;;1.00;0.80;;;;;;;16.08;51.31;102264.41;5013241;28;20032;-58
2021/03/01 06:25:08;;;;;;;1.85;1.08;;;;;;;16.08;51.47;102257.09;5011342;28;20057;-59
2021/03/01 06:27:44;;;;;;;2.40;1.08;;;;;;;16.07;51.55;102262.72;5010706;28;20034;-58
2021/03/01 06:30:10;;;;;;;1.98;0.80;;;;;;;16.02;51.31;102260.53;5011785;28;20083;-58
2021/03/01 06:32:36;;;;;;;1.40;0.75;;;;;;;16.03;51.47;102264.94;5009451;28;20030;-58
2021/03/01 06:35:02;;;;;;;1.40;0.88;;;;;;;16.01;51.52;102261.56;5011205;28;20080;-58
2021/03/01 06:37:28;;;;;;;2.38;1.00;;;;;;;15.96;51.33;102261.25;5011071;28;20022;-58
2021/03/01 06:39:55;;;;;;;1.65;0.80;;;;;;;15.95;51.33;102265.00;5011070;28;20033;-58
2021/03/01 06:42:22;;;;;;;1.08;0.85;;;;;;;15.93;51.21;102256.19;5013440;28;20476;-59
2021/03/01 06:44:49;;;;;;;1.73;0.98;;;;;;;15.94;51.43;102260.59;5030814;28;20528;-59
2021/03/01 06:47:15;;;;;;;1.25;0.80;;;;;;;15.91;51.13;102263.66;5030170;28;20026;-58
2021/03/01 06:49:42;;;;;;;1.65;0.90;;;;;;;15.90;51.26;102258.44;5030684;28;20418;-58
2021/03/01 06:52:08;;;;;;;1.15;0.85;;;;;;;15.94;51.33;102259.72;5028583;28;20041;-59
2021/03/01 06:54:34;;;;;;;1.08;0.90;;;;;;;15.99;51.21;102260.88;5011342;28;20049;-59
2021/03/01 06:57:00;;;;;;;1.25;0.80;;;;;;;16.06;50.76;102261.03;5010592;28;20428;-60
2021/03/01 06:59:25;;;;;;;1.55;0.80;;;;;;;16.16;50.64;102275.16;5013480;28;20570;-59
2021/03/01 07:01:53;;;;;;;2.03;0.90;;;;;;;16.24;50.51;102266.97;5014720;28;20029;-58
2021/03/01 07:04:22;;;;;;;1.00;0.65;;;;;;;16.33;50.58;102265.03;5014666;28;20233;-60
2021/03/01 07:06:48;;;;;;;2.25;1.02;;;;;;;16.43;50.39;102262.09;5014249;28;20034;-58
2021/03/01 07:09:15;;;;;;;0.73;0.73;;;;;;;16.53;50.33;102262.69;5014726;28;20487;-60
2021/03/01 07:11:40;;;;;;;1.17;0.80;;;;;;;16.62;50.04;102265.13;5013941;28;20022;-57
2021/03/01 07:14:06;;;;;;;1.08;0.70;;;;;;;16.73;49.72;102266.59;5014550;28;20029;-58
2021/03/01 07:16:36;;;;;;;1.42;0.70;;;;;;;16.84;49.58;102263.44;5014043;28;20495;-59
2021/03/01 07:19:03;;;;;;;1.75;0.80;;;;;;;16.92;49.46;102260.63;5014654;28;20018;-59
2021/03/01 07:21:28;;;;;;;0.82;0.60;;;;;;;17.03;49.29;102270.16;5013905;28;20485;-58
2021/03/01 07:23:54;;;;;;;1.65;0.75;;;;;;;17.11;49.12;102259.22;5014463;28;20026;-58
2021/03/01 07:26:20;;;;;;;1.42;0.75;;;;;;;17.22;49.00;102257.06;5013744;28;20072;-59
2021/03/01 07:28:51;;;;;;;1.08;0.70;;;;;;;17.32;48.86;102254.91;5014108;28;20022;-58
2021/03/01 07:31:17;;;;;;;1.02;0.70;;;;;;;17.41;48.69;102259.22;5012797;28;20029;-59
2021/03/01 07:33:43;;;;;;;0.93;0.60;;;;;;;17.49;48.51;102259.09;5013371;28;20029;-59
2021/03/01 07:36:10;;;;;;;1.33;0.75;;;;;;;17.57;48.53;102261.72;5013471;28;20030;-59
2021/03/01 07:38:35;;;;;;;0.88;0.65;;;;;;;17.70;48.16;102261.88;5014031;28;20049;-59
2021/03/01 07:41:02;;;;;;;2.25;0.90;;;;;;;17.80;48.02;102266.19;5013368;28;20091;-59
2021/03/01 07:43:28;;;;;;;0.80;0.50;;;;;;;17.88;47.95;102258.75;5026136;28;20030;-59
2021/03/01 07:45:54;;;;;;;1.92;0.85;;;;;;;17.96;47.90;102266.78;5019056;28;20041;-58
2021/03/01 07:48:20;;;;;;;1.13;0.73;;;;;;;18.03;47.82;102266.03;5013313;28;20036;-58
2021/03/01 07:50:46;;;;;;;0.43;0.32;;;;;;;18.03;47.86;102272.28;5013378;28;20129;-59
2021/03/01 07:53:31;;;;;;;1.33;0.80;;;;;;;18.12;47.78;102275.72;5014006;28;20384;-60
2021/03/01 07:56:10;;;;;;;0.60;0.40;;;;;;;18.17;47.82;102278.69;5012980;28;20034;-60
2021/03/01 07:58:54;;;;;;;1.35;0.80;;;;;;;18.21;47.70;102275.41;5013376;28;20548;-60
2021/03/01 08:01:19;;;;;;;0.60;0.60;;;;;;;18.22;47.82;102276.25;5013422;28;20045;-59
2021/03/01 08:03:45;;;;;;;1.23;0.70;;;;;;;18.26;47.71;102282.13;5013575;28;20029;-58
2021/03/01 08:06:11;;;;;;;1.42;0.63;;;;;;;18.29;47.67;102281.75;5013491;28;20389;-59
2021/03/01 08:08:48;;;;;;;2.10;0.80;;;;;;;18.33;47.63;102277.59;5013278;28;20629;-60
2021/03/01 08:11:14;;;;;;;2.20;0.50;;;;;;;18.35;47.53;102284.53;5013308;28;20215;-60
2021/03/01 08:13:39;;;;;;;1.25;0.70;;;;;;;18.39;47.54;102285.81;5013379;28;20234;-60
2021/03/01 08:16:18;;;;;;;0.60;0.47;;;;;;;18.41;47.54;102278.31;5012060;28;20026;-60
2021/03/01 08:18:51;;;;;;;0.60;0.47;;;;;;;18.44;47.65;102288.78;5012097;28;20057;-60
2021/03/01 08:21:17;;;;;;;0.80;0.50;;;;;;;18.43;47.61;102289.00;5022381;28;20037;-60
2021/03/01 08:23:43;;;;;;;0.60;0.60;;;;;;;18.45;47.69;102286.91;5032930;28;20013;-60
2021/03/01 08:26:08;;;;;;;1.08;0.75;;;;;;;18.44;47.64;102286.06;5032241;28;20037;-60
2021/03/01 08:28:36;;;;;;;1.15;0.88;;;;;;;18.44;47.60;102286.06;5032360;28;20036;-61
2021/03/01 08:31:21;;;;;;;1.00;0.65;;;;;;;18.47;47.49;102290.28;5032355;28;20025;-61
2021/03/01 08:33:47;;;;;;;1.58;0.60;;;;;;;18.48;47.43;102286.53;5032228;28;20033;-60
2021/03/01 08:36:13;;;;;;;3.28;0.70;;;;;;;18.47;48.35;102288.41;5032480;28;20124;-57
2021/03/01 08:38:47;;;;;;;1.17;0.68;;;;;;;18.61;49.75;102285.78;5032449;28;20018;-64
2021/03/01 08:41:14;;;;;;;1.02;0.50;;;;;;;18.59;49.12;102291.44;5031599;28;20079;-58
2021/03/01 08:43:40;;;;;;;1.30;0.85;;;;;;;18.61;49.02;102291.22;5017095;28;20026;-58
2021/03/01 08:46:08;;;;;;;1.63;0.73;;;;;;;18.63;50.42;102290.03;5012506;28;20025;-56
2021/03/01 08:48:39;;;;;;;1.05;0.88;;;;;;;18.70;51.21;102295.53;5012267;28;20427;-58
2021/03/01 08:51:04;;;;;;;2.90;0.85;;;;;;;18.64;51.09;102285.41;5012412;28;20053;-60
2021/03/01 08:53:30;;;;;;;0.75;0.75;;;;;;;18.62;51.11;102293.75;5012685;28;20137;-59
2021/03/01 08:55:56;;;;;;;2.78;0.90;;;;;;;18.57;51.46;102301.66;5010574;28;20469;-59
2021/03/01 08:58:23;;;;;;;1.50;0.80;;;;;;;18.53;51.99;102294.94;5012373;28;20362;-58
2021/03/01 09:00:55;;;;;;;0.60;0.50;;;;;;;18.54;51.90;102302.06;5012601;28;20088;-58
2021/03/01 09:03:26;;;;;;;1.95;0.98;;;;;;;18.54;52.55;102307.50;5012005;28;20072;-60
2021/03/01 09:05:55;;;;;;;1.40;0.80;;;;;;;18.54;52.94;102312.09;5012137;28;20121;-60
2021/03/01 09:08:26;;;;;;;2.23;0.73;;;;;;;18.59;53.11;102307.75;5012394;28;20057;-57
2021/03/01 09:10:51;;;;;;;2.13;0.50;;;;;;;18.66;52.84;102305.09;5011650;28;20041;-58
2021/03/01 09:13:18;;;;;;;2.78;0.82;;;;;;;18.60;52.91;102309.44;5011724;28;20026;-56
2021/03/01 09:15:44;;;;;;;1.17;0.80;;;;;;;18.55;53.60;102311.91;5011868;28;20149;-56
2021/03/01 09:18:11;;;;;;;2.40;0.73;;;;;;;18.53;53.61;102305.81;5011970;28;20050;-58
2021/03/01 09:20:39;;;;;;;0.85;0.52;;;;;;;18.49;53.66;102302.66;5011748;28;20026;-56
2021/03/01 09:23:05;;;;;;;2.05;1.00;;;;;;;18.52;53.15;102309.59;5012027;28;20043;-55
2021/03/01 09:25:31;;;;;;;4.10;0.77;;;;;;;18.58;52.87;102305.25;5011611;28;20473;-55
2021/03/01 09:27:57;;;;;;;0.77;0.60;;;;;;;18.54;51.99;102307.50;5011477;28;20030;-57
2021/03/01 09:30:23;;;;;;;1.98;0.50;;;;;;;18.52;52.51;102312.31;5011796;28;20040;-57
2021/03/01 09:32:57;;;;;;;1.00;0.45;;;;;;;18.50;51.83;102311.66;5011224;28;20084;-58
2021/03/01 09:35:24;;;;;;;2.72;0.88;;;;;;;18.56;52.66;102305.41;5011710;28;20034;-58
2021/03/01 09:37:50;;;;;;;4.72;1.23;;;;;;;18.57;51.72;102306.25;5011816;28;20038;-58
2021/03/01 09:40:18;;;;;;;2.13;1.10;;;;;;;18.58;51.89;102300.66;5029999;28;20439;-56
2021/03/01 09:42:49;;;;;;;4.78;1.08;;;;;;;18.58;51.98;102295.22;5031394;28;20017;-56
2021/03/01 09:45:15;;;;;;;7.30;1.20;;;;;;;18.59;50.79;102309.66;5030961;28;20030;-55
2021/03/01 09:47:41;;;;;;;2.42;1.17;;;;;;;18.63;51.30;102306.34;5030383;28;20064;-56
2021/03/01 09:50:08;;;;;;;5.95;1.63;;;;;;;18.64;51.92;102297.13;5030885;28;20029;-58
2021/03/01 09:52:34;;;;;;;6.20;1.00;;;;;;;18.62;51.88;102299.19;5031281;28;20079;-57
2021/03/01 09:55:00;;;;;;;4.43;1.50;;;;;;;18.63;52.10;102295.47;5031469;28;20076;-56
2021/03/01 09:57:29;;;;;;;9.25;2.05;;;;;;;18.67;51.65;102299.47;5029790;28;20068;-57
2021/03/01 09:59:54;;;;;;;3.75;1.25;;;;;;;18.71;51.24;102294.50;5030901;28;20104;-55
2021/03/01 10:02:23;;;;;;;2.88;1.05;;;;;;;18.67;49.79;102294.03;5030768;28;20128;-61
2021/03/01 10:04:51;;;;;;;3.17;1.13;;;;;;;18.69;49.11;102285.69;5031124;28;20021;-58
2021/03/01 10:07:19;;;;;;;2.47;1.00;;;;;;;18.71;48.46;102287.16;5031098;28;20476;-58
2021/03/01 10:09:45;;;;;;;3.00;1.02;;;;;;;18.68;48.41;102294.88;5030233;28;20388;-58
2021/03/01 10:12:11;;;;;;;2.45;0.98;;;;;;;18.63;48.51;102290.03;5050470;28;20087;-58
2021/03/01 10:14:36;;;;;;;4.00;1.42;;;;;;;18.63;48.44;102292.75;5037081;28;20392;-56
2021/03/01 10:17:16;;;;;;;7.03;1.10;;;;;;;18.69;49.03;102299.31;5029889;28;20029;-57
2021/03/01 10:19:42;;;;;;;1.13;0.70;;;;;;;18.75;48.74;102290.34;5029350;28;20041;-57
2021/03/01 10:22:07;;;;;;;2.72;0.80;;;;;;;18.75;49.04;102299.34;5029107;28;20034;-55
2021/03/01 10:24:42;;;;;;;3.05;0.95;;;;;;;18.75;48.42;102296.63;5041508;28;20033;-57
2021/03/01 10:27:08;;;;;;;16.27;2.58;;;;;;;18.72;48.66;102294.28;5047245;28;20100;-58
2021/03/01 10:29:39;;;;;;;5.85;1.38;;;;;;;18.70;48.46;102293.66;5049710;28;20100;-58
2021/03/01 10:32:05;;;;;;;5.30;1.60;;;;;;;18.70;49.00;102296.38;5043055;28;20120;-52
2021/03/01 10:34:33;;;;;;;4.38;1.33;;;;;;;18.70;48.24;102288.22;5033475;28;20232;-55
2021/03/01 10:36:59;;;;;;;4.70;1.80;;;;;;;18.70;48.42;102285.50;5034855;28;20037;-58
2021/03/01 10:39:36;;;;;;;6.60;2.30;;;;;;;18.72;48.39;102280.69;5034664;28;20030;-56
2021/03/01 10:42:03;;;;;;;5.63;2.50;;;;;;;18.71;48.28;102283.63;5040273;28;20129;-55
2021/03/01 10:44:32;;;;;;;4.53;1.83;;;;;;;18.72;48.70;102277.13;5034670;28;20026;-57
2021/03/01 10:47:01;;;;;;;7.93;2.42;;;;;;;18.72;48.29;102279.84;5038483;28;20545;-56
2021/03/01 10:49:28;;;;;;;5.57;1.57;;;;;;;18.73;48.19;102278.81;5043960;28;20025;-56
2021/03/01 10:51:56;;;;;;;5.88;1.52;;;;;;;18.73;48.37;102279.66;5045503;28;20060;-56
2021/03/01 10:54:22;;;;;;;7.40;2.00;;;;;;;18.73;48.11;102279.66;5037135;28;20021;-57
2021/03/01 10:56:48;;;;;;;8.90;1.98;;;;;;;18.73;48.23;102279.66;5038792;28;20455;-55
2021/03/01 10:59:15;;;;;;;7.22;1.90;;;;;;;18.71;48.32;102273.56;5011553;28;20084;-58
2021/03/01 11:01:42;;;;;;;9.02;1.83;;;;;;;18.70;48.25;102279.22;5014708;28;20405;-55
2021/03/01 11:04:09;;;;;;;5.30;1.80;;;;;;;18.69;48.50;102283.81;5053890;28;20515;-56
2021/03/01 11:06:34;;;;;;;2.65;1.60;;;;;;;18.72;48.44;102272.53;5039155;28;20021;-58
2021/03/01 11:09:01;;;;;;;6.75;1.80;;;;;;;18.72;48.31;102277.97;5040443;28;20022;-58
2021/03/01 11:11:26;;;;;;;5.55;1.85;;;;;;;18.75;48.42;102279.47;5036052;28;20435;-55
2021/03/01 11:13:52;;;;;;;5.03;1.70;;;;;;;18.74;48.32;102281.34;5029137;28;20041;-56
2021/03/01 11:16:18;;;;;;;4.72;1.60;;;;;;;18.74;48.09;102272.31;5030792;28;20025;-58
2021/03/01 11:18:43;;;;;;;7.15;1.95;;;;;;;18.77;47.87;102271.94;5033418;28;20025;-57
2021/03/01 11:21:09;;;;;;;6.05;2.45;;;;;;;18.79;48.05;102282.63;5034016;28;20033;-58
2021/03/01 11:23:35;;;;;;;2.78;1.13;;;;;;;18.80;47.90;102276.13;5033884;28;20030;-58